Perivale, United Kingdom

12:40 PM BST on June 23, 2017 (GMT +0100)
Ealing | | Change Station

Elev 0 ft 51.53 °N, 0.30 °W | Updated 2 minutes ago

Mostly Cloudy
Mostly Cloudy
74.8 °F
Feels Like 78 °F
N
7.5
Wind Variable Wind from WSW
Gusts 14.9 mph

Today
High -- | Low -- °F
--% Chance of Precip.
Yesterday
High -- | Low -- °F
Precip. -- in
Pressure 30.01 in
Visibility 6.2 miles
Clouds Mostly Cloudy 3600 ft
Heat Index 78 °F
Dew Point 56 °F
Humidity 51%
Rainfall 0.00 in
Snow Depth Not available.
4:44 AM 9:22 PM
Waning Crescent, 1% visible
METAR EGLL 231120Z AUTO 26015KT 9999 BKN036 22/11 Q1016 NOSIG
Pressure 30.01 in
Visibility 6.2 miles
Clouds Mostly Cloudy 3600 ft
Heat Index 78 °F
Dew Point 56 °F
Humidity 51%
Rainfall 0.00 in
Snow Depth Not available.
4:44 AM 9:22 PM
Waning Crescent, 1% visible
METAR EGLL 231120Z AUTO 26015KT 9999 BKN036 22/11 Q1016 NOSIG

Get Severe Weather Alerts

Thanks for signing up!

Be on the lookout for a verification email in your inbox.

You'll start receiving the daily forecast at 6 AM.

×

10-Day Weather Forecast

×

Almanac

Astronomy

Jun. 23, 2017 Rise Set
Actual Time
Civil Twilight
Nautical Twilight
Astronomical Twilight
Moon
Length of Visible Light
Length of Day
Tomorrow will be .
, % of the Moon is Illuminated

Today's Extremes

Country Highs Country Lows

Community

WunderPhotos

Category 6

Welcome to Category 6. This is the collective home for Weather Underground's featured writeups by Dr. Jeff Masters (right), Bob Henson (left), Chris Burt, and other regular contributors.

Nearby

Air Quality

  Air Quality AQ Index Pollutant
Not available.

Snow Depth

Station Depth Elevation

Earthquake Activity

City Distance Mag. Time & Date
Minimum magnitude displayed is 2.5.

Coastal Water Temperatures

Place Temperature

Stations

Nearby Weather Stations

Station Location Temp. Windchill Dew Point Humidity Wind Precip. Elev Updated Type